Time;durP1;ratioP1;P1;durP2;ratioP2;P2;SDS_P1;SDS_P2;PMS_P1;PMS_P2;Temp;Humidity;BMP_temperature;BMP_pressure;BME280_temperature;BME280_humidity;BME280_pressure;Samples;Min_cycle;Max_cycle;Signal;HPM_P1;HPM_P2
2021/07/25 00:01:00;;;;;;;64.20;23.93;;;;;;;-145.18;100.00;60484.78;5077185;28;20534;-71
2021/07/25 00:03:26;;;;;;;61.10;23.53;;;;;;;-145.18;100.00;60484.78;5084884;28;20035;-71
2021/07/25 00:05:51;;;;;;;57.77;23.00;;;;;;;-145.18;100.00;60484.78;5079018;28;20468;-71
2021/07/25 00:08:17;;;;;;;66.07;24.67;;;;;;;-145.18;100.00;60484.78;5085009;28;20492;-71
2021/07/25 00:10:46;;;;;;;66.17;24.70;;;;;;;18.53;100.00;70543.88;5079263;28;20020;-71
2021/07/25 00:13:13;;;;;;;65.17;25.90;;;;;;;18.49;100.00;75583.03;5075293;28;20027;-71
2021/07/25 00:15:39;;;;;;;65.63;24.60;;;;;;;18.40;100.00;79950.00;5079091;28;20181;-71
2021/07/25 00:18:04;;;;;;;75.17;25.77;;;;;;;18.27;100.00;81953.78;5080295;28;20585;-71
2021/07/25 00:20:30;;;;;;;75.20;25.40;;;;;;;18.20;100.00;80258.47;5071073;28;20570;-71
2021/07/25 00:22:56;;;;;;;71.93;25.70;;;;;;;18.15;100.00;80925.91;5084908;28;20164;-73
2021/07/25 00:25:22;;;;;;;74.33;26.10;;;;;;;18.08;100.00;80579.97;5081205;28;20019;-74
2021/07/25 00:27:54;;;;;;;77.43;26.83;;;;;;;18.05;100.00;81923.31;5089905;28;20038;-73
2021/07/25 00:30:21;;;;;;;93.63;27.33;;;;;;;18.06;100.00;83947.03;5087660;28;20500;-73
2021/07/25 00:32:47;;;;;;;80.80;25.87;;;;;;;18.03;100.00;85291.44;5089987;28;20047;-73
2021/07/25 00:35:14;;;;;;;99.70;27.63;;;;;;;18.07;100.00;86983.47;5083117;28;20035;-73
2021/07/25 00:37:43;;;;;;;89.37;27.40;;;;;;;18.08;100.00;85636.16;5087888;28;20027;-73
2021/07/25 00:40:15;;;;;;;94.43;25.83;;;;;;;18.13;100.00;86992.47;5081063;28;20600;-73
2021/07/25 00:42:40;;;;;;;101.20;28.70;;;;;;;18.11;100.00;84627.97;5086206;28;20244;-73
2021/07/25 00:45:06;;;;;;;88.17;27.50;;;;;;;18.12;100.00;84630.16;5083054;28;20111;-73
2021/07/25 00:47:33;;;;;;;92.57;28.47;;;;;;;18.13;100.00;83957.19;5085246;28;20043;-73
2021/07/25 00:49:58;;;;;;;79.27;27.07;;;;;;;18.14;100.00;82946.47;5083219;28;20039;-73
2021/07/25 00:52:24;;;;;;;89.87;28.10;;;;;;;18.14;100.00;81936.06;5084264;28;20106;-73
2021/07/25 00:54:50;;;;;;;88.47;27.07;;;;;;;18.16;100.00;82275.22;5082531;28;20480;-73
2021/07/25 00:57:15;;;;;;;79.10;27.03;;;;;;;18.20;100.00;81606.16;5082804;28;20039;-73
2021/07/25 00:59:41;;;;;;;84.67;25.73;;;;;;;18.20;100.00;78911.28;5082308;28;20273;-73
2021/07/25 01:02:06;;;;;;;72.03;24.93;;;;;;;18.23;100.00;77569.34;5085001;28;20653;-71
2021/07/25 01:05:10;;;;;;;69.37;23.77;;;;;;;18.24;100.00;76224.47;5073299;28;20031;-71
2021/07/25 01:07:49;;;;;;;69.47;23.70;;;;;;;18.23;100.00;76222.47;5032821;28;20513;-73
2021/07/25 01:10:23;;;;;;;66.30;23.77;;;;;;;18.23;100.00;74540.50;5079671;28;20127;-73
2021/07/25 01:12:58;;;;;;;58.67;23.67;;;;;;;18.21;100.00;75210.56;5081249;28;20047;-73
2021/07/25 01:15:26;;;;;;;71.70;25.50;;;;;;;18.24;100.00;75214.50;5081656;28;20477;-71
2021/07/25 01:17:58;;;;;;;60.97;24.43;;;;;;;18.22;100.00;73531.06;5082501;28;20207;-71
2021/07/25 01:20:23;;;;;;;64.17;23.27;;;;;;;18.22;100.00;74539.19;5086506;28;20189;-71
2021/07/25 01:22:51;;;;;;;65.07;23.50;;;;;;;18.21;100.00;76219.84;5084124;28;20468;-71
2021/07/25 01:25:21;;;;;;;61.87;22.60;;;;;;;18.21;100.00;78239.25;5081432;28;20032;-71
2021/07/25 01:28:27;;;;;;;61.83;23.30;;;;;;;18.21;100.00;78239.25;5083204;28;20028;-71
2021/07/25 01:30:58;;;;;;;55.50;22.20;;;;;;;18.19;100.00;79584.13;5029565;28;20516;-73
2021/07/25 01:33:30;;;;;;;63.00;23.13;;;;;;;18.19;100.00;79247.34;5085350;28;20411;-73
2021/07/25 01:35:57;;;;;;;67.05;22.58;;;;;;;18.20;100.00;78911.28;5081924;28;20123;-73
2021/07/25 01:38:24;;;;;;;58.83;22.47;;;;;;;18.19;100.00;78910.59;5082732;28;20608;-73
2021/07/25 01:41:04;;;;;;;57.50;21.87;;;;;;;18.18;100.00;78571.84;5077600;28;20429;-73
2021/07/25 01:43:36;;;;;;;52.60;20.80;;;;;;;18.19;100.00;77227.38;5084370;28;20023;-73
2021/07/25 01:46:01;;;;;;;43.15;17.67;;;;;;;18.21;100.00;76219.84;5076952;28;20020;-71
2021/07/25 01:48:27;;;;;;;42.33;15.83;;;;;;;18.23;100.00;70507.06;5076746;28;20513;-71
2021/07/25 01:50:52;;;;;;;38.90;16.93;;;;;;;18.19;100.00;67816.63;5081459;28;20480;-71
2021/07/25 01:53:18;;;;;;;38.27;15.80;;;;;;;18.18;100.00;68486.19;5082524;28;20430;-71
2021/07/25 01:55:44;;;;;;;36.23;15.73;;;;;;;18.21;100.00;69497.03;5080702;28;20028;-71
2021/07/25 01:58:09;;;;;;;45.30;17.30;;;;;;;18.19;100.00;67816.03;5082541;28;20135;-71
2021/07/25 02:00:35;;;;;;;38.77;16.93;;;;;;;18.20;100.00;68152.88;5074565;28;20063;-71
2021/07/25 02:03:00;;;;;;;39.80;16.17;;;;;;;18.20;100.00;67817.81;5091508;28;20058;-71
2021/07/25 02:05:26;;;;;;;37.93;16.37;;;;;;;18.19;100.00;66809.28;5083072;28;20039;-71
2021/07/25 02:07:51;;;;;;;35.20;15.30;;;;;;;18.16;100.00;67478.06;5090291;28;20180;-71
2021/07/25 02:10:17;;;;;;;36.63;15.80;;;;;;;18.13;100.00;65461.13;5082232;28;20160;-71
2021/07/25 02:12:42;;;;;;;29.07;12.77;;;;;;;18.12;100.00;63113.78;5089258;28;20460;-71
2021/07/25 02:15:09;;;;;;;30.40;13.63;;;;;;;18.11;100.00;59427.69;5084009;28;20048;-68
2021/07/25 02:17:34;;;;;;;29.53;12.93;;;;;;;18.11;100.00;62107.44;5086772;28;20093;-69
2021/07/25 02:20:00;;;;;;;28.57;13.17;;;;;;;18.07;100.00;62102.53;5083137;28;20299;-69
2021/07/25 02:22:25;;;;;;;36.87;13.83;;;;;;;18.05;100.00;64110.94;5086233;28;20091;-69
2021/07/25 02:24:51;;;;;;;30.40;14.67;;;;;;;18.02;100.00;63437.28;5082699;28;20537;-69
2021/07/25 02:27:16;;;;;;;33.23;14.20;;;;;;;18.03;100.00;62433.72;5074812;28;20035;-69
2021/07/25 02:29:42;;;;;;;30.87;14.07;;;;;;;18.04;100.00;60760.09;5081087;28;20039;-69
2021/07/25 02:32:07;;;;;;;35.37;14.73;;;;;;;18.02;100.00;54736.00;5079634;28;20055;-69
2021/07/25 02:34:33;;;;;;;35.63;16.37;;;;;;;18.02;100.00;54401.75;5083504;28;20035;-69
2021/07/25 02:36:59;;;;;;;30.77;13.53;;;;;;;17.97;100.00;53728.63;5075418;28;20179;-69
2021/07/25 02:39:28;;;;;;;36.13;15.03;;;;;;;17.93;100.00;52054.72;5082756;28;20032;-68
2021/07/25 02:41:54;;;;;;;37.40;15.03;;;;;;;17.82;100.00;54716.72;5080318;28;20047;-69
2021/07/25 02:44:19;;;;;;;33.53;14.13;;;;;;;17.73;100.00;58720.09;5082852;28;20599;-69
2021/07/25 02:46:45;;;;;;;36.60;13.60;;;;;;;17.72;100.00;57380.84;5080097;28;20031;-69
2021/07/25 02:49:10;;;;;;;34.63;14.77;;;;;;;17.73;100.00;56379.44;5081154;28;20028;-69
2021/07/25 02:51:36;;;;;;;29.93;13.53;;;;;;;17.80;100.00;53712.53;5080432;28;20020;-69
2021/07/25 02:54:01;;;;;;;34.93;14.70;;;;;;;17.80;100.00;53378.50;5094408;28;20288;-69
2021/07/25 02:56:27;;;;;;;31.43;14.20;;;;;;;17.83;100.00;54049.91;5079839;28;20248;-69
2021/07/25 02:58:52;;;;;;;37.53;15.00;;;;;;;17.76;100.00;54376.81;5093253;28;20032;-69
2021/07/25 03:01:18;;;;;;;34.97;14.43;;;;;;;17.79;100.00;56719.19;5080069;28;20020;-71
2021/07/25 03:03:43;;;;;;;30.60;13.90;;;;;;;17.80;100.00;55049.41;5092704;28;20544;-71
2021/07/25 03:06:09;;;;;;;32.03;13.40;;;;;;;17.83;100.00;49375.47;5078711;28;20054;-71
2021/07/25 03:08:35;;;;;;;32.37;14.63;;;;;;;17.86;100.00;43044.84;5087636;28;20036;-71
2021/07/25 03:11:01;;;;;;;31.23;13.30;;;;;;;17.87;100.00;40049.75;5079764;28;20635;-69
2021/07/25 03:13:30;;;;;;;34.60;15.53;;;;;;;17.91;100.00;28094.88;5089923;28;20551;-69
2021/07/25 03:16:00;;;;;;;30.70;14.47;;;;;;;17.97;100.00;23127.88;5079421;28;20197;-69
2021/07/25 03:18:26;;;;;;;35.67;16.27;;;;;;;17.93;100.00;26107.38;5086166;28;20354;-69
2021/07/25 03:20:52;;;;;;;35.30;15.97;;;;;;;17.91;100.00;35397.09;5080023;28;20112;-69
2021/07/25 03:23:17;;;;;;;39.73;16.30;;;;;;;17.90;100.00;38388.28;5086630;28;20038;-69
2021/07/25 03:25:42;;;;;;;41.27;17.50;;;;;;;17.95;100.00;37394.44;5079595;28;20039;-69
2021/07/25 03:28:08;;;;;;;44.00;17.30;;;;;;;18.01;100.00;33742.28;5085827;28;20280;-69
2021/07/25 03:30:37;;;;;;;38.47;16.73;;;;;;;18.07;100.00;27771.88;5073897;28;20386;-69
2021/07/25 03:33:02;;;;;;;43.20;17.83;;;;;;;18.05;100.00;32084.47;5083128;28;20036;-69
2021/07/25 03:35:28;;;;;;;44.07;17.73;;;;;;;18.00;100.00;36067.63;5079431;28;20089;-69
2021/07/25 03:37:53;;;;;;;33.63;16.10;;;;;;;17.99;100.00;35734.59;5084043;28;20289;-69
2021/07/25 03:40:24;;;;;;;47.83;17.87;;;;;;;17.93;100.00;39721.34;5078969;28;20077;-69
2021/07/25 03:42:50;;;;;;;38.83;17.70;;;;;;;17.92;100.00;45381.22;5080889;28;20028;-69
2021/07/25 03:45:16;;;;;;;38.50;17.43;;;;;;;17.94;100.00;43717.19;5079951;28;20089;-69
2021/07/25 03:47:41;;;;;;;38.43;17.97;;;;;;;17.93;100.00;46049.06;5080067;28;20299;-69
2021/07/25 03:50:08;;;;;;;43.77;18.60;;;;;;;17.95;100.00;46384.09;5079304;28;20081;-69
2021/07/25 03:52:35;;;;;;;47.83;18.70;;;;;;;17.96;100.00;47385.25;5084484;28;20255;-69
2021/07/25 03:55:02;;;;;;;41.33;18.97;;;;;;;17.94;100.00;54728.28;5087033;28;20028;-69
2021/07/25 03:57:27;;;;;;;43.77;19.43;;;;;;;17.94;100.00;56733.66;5084272;28;20193;-69
2021/07/25 03:59:53;;;;;;;43.57;19.60;;;;;;;17.95;100.00;57738.56;5083974;28;20142;-69
2021/07/25 04:02:18;;;;;;;44.30;19.83;;;;;;;17.94;100.00;60079.91;5082650;28;20034;-69
2021/07/25 04:04:44;;;;;;;43.50;19.63;;;;;;;17.95;100.00;53392.63;5086840;28;20245;-69
2021/07/25 04:07:09;;;;;;;45.20;19.40;;;;;;;17.96;100.00;50054.31;5081409;28;20058;-69
2021/07/25 04:09:35;;;;;;;44.77;18.90;;;;;;;17.96;100.00;50721.44;5085783;28;20036;-69
2021/07/25 04:12:00;;;;;;;44.77;17.67;;;;;;;17.95;100.00;49719.69;5081116;28;20037;-70
2021/07/25 04:14:26;;;;;;;39.07;18.10;;;;;;;17.92;100.00;48716.03;5086089;28;20547;-69
2021/07/25 04:16:51;;;;;;;41.83;18.33;;;;;;;17.91;100.00;46047.41;5078961;28;20043;-69
2021/07/25 04:19:17;;;;;;;38.27;18.30;;;;;;;17.92;100.00;45381.22;5083976;28;20039;-71
2021/07/25 04:21:43;;;;;;;45.53;20.27;;;;;;;17.91;100.00;39719.56;5078608;28;20368;-71
2021/07/25 04:24:09;;;;;;;43.83;19.07;;;;;;;17.96;100.00;40056.25;5082006;28;20035;-69
2021/07/25 04:26:35;;;;;;;41.43;19.60;;;;;;;17.97;100.00;37727.97;5079194;28;20377;-69
2021/07/25 04:29:01;;;;;;;45.43;19.37;;;;;;;17.95;100.00;40388.31;5084830;28;20038;-69
2021/07/25 04:31:27;;;;;;;47.80;19.53;;;;;;;17.95;100.00;45384.03;5077871;28;20036;-69
2021/07/25 04:33:54;;;;;;;48.90;20.10;;;;;;;17.94;100.00;44716.72;5083579;28;20032;-69
2021/07/25 04:36:26;;;;;;;41.27;18.83;;;;;;;18.01;100.00;46388.63;5079045;28;20597;-69
2021/07/25 04:38:54;;;;;;;46.17;19.60;;;;;;;18.01;100.00;43389.50;5080554;28;20308;-69
2021/07/25 04:41:25;;;;;;;47.80;18.97;;;;;;;17.98;100.00;42055.00;5079024;28;20078;-69
2021/07/25 04:44:29;;;;;;;42.10;18.88;;;;;;;18.02;100.00;38396.94;5081124;28;20036;-69
2021/07/25 04:47:02;;;;;;;41.50;17.30;;;;;;;18.01;100.00;38395.91;5016641;28;20061;-69
2021/07/25 04:49:35;;;;;;;41.13;18.80;;;;;;;18.03;100.00;42058.75;5003361;28;20129;-69
2021/07/25 04:52:01;;;;;;;44.57;19.13;;;;;;;18.10;100.00;36739.13;5006518;28;20113;-69
2021/07/25 04:54:34;;;;;;;42.80;18.80;;;;;;;18.29;100.00;29773.69;5008583;28;20037;-69
2021/07/25 04:57:04;;;;;;;35.53;17.50;;;;;;;18.50;100.00;13885.25;5007806;28;20034;-69
2021/07/25 04:59:50;;;;;;;39.37;17.70;;;;;;;18.64;100.00;3329.13;5026231;28;20607;-69
2021/07/25 05:02:17;;;;;;;41.03;17.70;;;;;;;18.63;100.00;-4240.06;5017142;28;20313;-69
2021/07/25 05:04:47;;;;;;;39.87;18.47;;;;;;;18.56;100.00;-4897.28;5020340;28;20061;-69
2021/07/25 05:07:13;;;;;;;40.37;18.37;;;;;;;18.56;100.00;-951.63;5012668;28;20135;-69
2021/07/25 05:09:39;;;;;;;42.53;18.17;;;;;;;18.54;100.00;-7196.63;5022304;28;20029;-69
2021/07/25 05:12:19;;;;;;;44.67;18.03;;;;;;;18.67;100.00;-6868.91;5016943;28;20306;-69
2021/07/25 05:15:15;;;;;;;40.27;18.07;;;;;;;18.81;100.00;-14417.31;5024280;28;20045;-69
2021/07/25 05:17:56;;;;;;;39.00;17.00;;;;;;;18.93;100.00;-19657.50;5005571;28;20659;-69
2021/07/25 05:20:29;;;;;;;35.20;16.27;;;;;;;19.24;100.00;-19665.44;5021150;28;20094;-71
2021/07/25 05:23:09;;;;;;;30.67;15.87;;;;;;;19.40;100.00;-19669.34;5086206;28;20496;-71
2021/07/25 05:25:40;;;;;;;37.47;15.93;;;;;;;19.40;100.00;-19669.47;5072194;28;20182;-71
2021/07/25 05:28:06;;;;;;;33.47;16.10;;;;;;;19.46;100.00;-19670.91;5086052;28;20027;-71
2021/07/25 05:30:35;;;;;;;29.98;15.60;;;;;;;19.33;100.00;-19667.78;5073703;28;20017;-71
2021/07/25 05:33:01;;;;;;;33.20;15.63;;;;;;;19.49;100.00;-19671.81;5084191;28;20028;-71
2021/07/25 05:35:26;;;;;;;31.55;15.02;;;;;;;19.17;100.00;-19663.63;5081651;28;20026;-71
2021/07/25 05:37:52;;;;;;;28.50;14.38;;;;;;;19.30;100.00;-19667.00;5085433;28;20056;-71
2021/07/25 05:40:18;;;;;;;45.85;17.02;;;;;;;19.56;100.00;-19673.50;5077394;28;20078;-71
2021/07/25 05:42:43;;;;;;;31.85;14.18;;;;;;;19.78;100.00;-19679.13;5082557;28;20392;-71
2021/07/25 05:45:11;;;;;;;30.17;14.90;;;;;;;20.04;100.00;-19685.75;5080105;28;20093;-71
2021/07/25 05:47:37;;;;;;;32.22;14.55;;;;;;;20.34;100.00;-19693.53;5076259;28;20020;-71
2021/07/25 05:50:04;;;;;;;28.88;14.40;;;;;;;20.31;100.00;-19692.75;5077282;28;20097;-71
2021/07/25 05:53:03;;;;;;;32.20;15.50;;;;;;;20.36;100.00;-19693.94;5077907;28;20038;-69
2021/07/25 05:55:30;;;;;;;28.13;13.77;;;;;;;20.24;100.00;-19690.81;5018386;28;20252;-69
2021/07/25 05:57:57;;;;;;;29.52;14.65;;;;;;;20.17;100.00;-19689.25;5024640;28;20040;-69
2021/07/25 06:00:22;;;;;;;28.30;14.27;;;;;;;20.04;100.00;-19685.88;5022744;28;20235;-69
2021/07/25 06:02:59;;;;;;;31.15;14.00;;;;;;;20.20;100.00;-19690.03;5026104;28;20529;-69
2021/07/25 06:05:33;;;;;;;28.58;13.73;;;;;;;20.29;100.00;-19692.25;5020846;28;20580;-69
2021/07/25 06:08:00;;;;;;;31.15;14.93;;;;;;;20.10;100.00;-19687.31;5027877;28;20095;-69
2021/07/25 06:10:30;;;;;;;29.75;14.93;;;;;;;20.10;100.00;-19687.31;5015153;28;20100;-69
2021/07/25 06:12:57;;;;;;;31.33;14.75;;;;;;;19.79;100.00;-19679.50;5038010;28;20060;-70
2021/07/25 06:15:24;;;;;;;39.05;15.52;;;;;;;19.76;100.00;-19678.72;5018854;28;20410;-70
2021/07/25 06:17:51;;;;;;;32.05;14.63;;;;;;;19.62;100.00;-19675.06;5026080;28;20036;-70
2021/07/25 06:20:17;;;;;;;32.97;15.82;;;;;;;19.70;100.00;-19677.16;5018953;28;20039;-70
2021/07/25 06:22:46;;;;;;;35.72;16.92;;;;;;;19.53;100.00;-19672.72;5019458;28;20289;-71
2021/07/25 06:25:14;;;;;;;37.55;16.20;;;;;;;19.38;100.00;-19668.94;5019625;28;20208;-72
2021/07/25 06:27:40;;;;;;;38.78;16.85;;;;;;;19.37;100.00;-19668.56;5027873;28;20037;-72
2021/07/25 06:30:08;;;;;;;37.30;16.08;;;;;;;19.26;100.00;-19665.81;5022441;28;20028;-72
2021/07/25 06:32:59;;;;;;;37.50;17.08;;;;;;;19.38;100.00;-19668.94;5081255;28;20121;-72
2021/07/25 06:35:31;;;;;;;38.80;17.77;;;;;;;19.47;100.00;-19671.16;5074509;28;20032;-72
2021/07/25 06:38:01;;;;;;;42.95;17.88;;;;;;;19.66;100.00;-19676.00;5081257;28;20043;-72
2021/07/25 06:40:28;;;;;;;36.83;17.92;;;;;;;20.36;100.00;-19694.06;5080768;28;20193;-71
2021/07/25 06:42:56;;;;;;;37.63;16.85;;;;;;;21.11;100.00;-19713.03;5082879;28;20070;-71
2021/07/25 06:45:22;;;;;;;36.08;16.60;;;;;;;21.06;100.00;-19712.00;5080294;28;20023;-71
2021/07/25 06:47:49;;;;;;;35.03;16.73;;;;;;;20.79;100.00;-19704.97;5081801;28;20036;-71
2021/07/25 06:50:22;;;;;;;31.85;15.48;;;;;;;20.67;100.00;-19701.88;5080783;28;20024;-71
2021/07/25 06:52:49;;;;;;;37.42;16.33;;;;;;;21.03;100.00;-19711.22;5080619;28;20259;-71
2021/07/25 06:55:14;;;;;;;32.40;15.25;;;;;;;20.95;100.00;-19709.13;5079988;28;20058;-69
2021/07/25 06:57:40;;;;;;;37.95;15.52;;;;;;;22.64;100.00;-19752.09;5087531;28;20055;-69
2021/07/25 07:00:07;;;;;;;29.48;14.32;;;;;;;24.11;100.00;-19789.50;5086543;28;20105;-69
2021/07/25 07:02:55;;;;;;;31.23;15.02;;;;;;;22.77;100.00;-19755.59;5082529;28;20040;-71
2021/07/25 07:05:26;;;;;;;32.58;15.07;;;;;;;22.17;100.00;-19740.28;5079881;28;20056;-72
2021/07/25 07:07:57;;;;;;;34.85;15.50;;;;;;;20.94;100.00;-19708.88;5086709;28;20054;-72
2021/07/25 07:10:25;;;;;;;31.58;15.23;;;;;;;20.55;100.00;-19698.75;5079607;28;20111;-72
2021/07/25 07:12:51;;;;;;;32.17;15.15;;;;;;;20.63;100.00;-19700.97;5088669;28;20478;-72
2021/07/25 07:15:21;;;;;;;35.33;15.00;;;;;;;20.55;100.00;-19698.75;5081337;28;20062;-72
2021/07/25 07:17:49;;;;;;;37.08;16.08;;;;;;;21.22;100.00;-19715.91;5087560;28;20027;-72
2021/07/25 07:20:14;;;;;;;33.70;15.20;;;;;;;21.64;100.00;-19726.78;5080702;28;20576;-72
2021/07/25 07:22:40;;;;;;;29.73;13.80;;;;;;;22.49;100.00;-19748.47;5083744;28;20115;-72
2021/07/25 07:25:08;;;;;;;33.70;14.82;;;;;;;21.90;100.00;-19733.41;5076222;28;20111;-71
2021/07/25 07:27:35;;;;;;;30.92;14.15;;;;;;;21.59;100.00;-19725.50;5085535;28;20027;-72
2021/07/25 07:30:01;;;;;;;36.10;15.27;;;;;;;22.79;100.00;-19756.09;5066737;28;20465;-72
2021/07/25 07:32:31;;;;;;;30.15;14.10;;;;;;;24.32;100.00;-19794.94;5085147;28;20357;-72
2021/07/25 07:34:59;;;;;;;27.48;12.95;;;;;;;24.72;100.00;-19805.16;5066697;28;20039;-72
2021/07/25 07:37:25;;;;;;;27.00;13.13;;;;;;;23.64;100.00;-19777.72;5083481;28;20941;-72
2021/07/25 07:39:50;;;;;;;27.00;12.73;;;;;;;22.47;100.00;-19747.81;5080197;28;20073;-72
2021/07/25 07:42:16;;;;;;;28.35;13.88;;;;;;;22.05;100.00;-19737.19;5081657;28;20231;-72
2021/07/25 07:44:42;;;;;;;32.08;13.80;;;;;;;22.91;100.00;-19758.97;5073893;28;20107;-72
2021/07/25 07:47:07;;;;;;;27.60;13.85;;;;;;;23.98;100.00;-19786.41;5079953;28;20312;-72
2021/07/25 07:49:33;;;;;;;26.98;13.32;;;;;;;25.16;100.00;-19816.13;5075944;28;20545;-72
2021/07/25 07:51:58;;;;;;;24.25;12.35;;;;;;;25.37;100.00;-19821.56;5079457;28;20222;-72
2021/07/25 07:54:24;;;;;;;24.92;12.25;;;;;;;24.45;100.00;-19798.28;5088219;28;20027;-72
2021/07/25 07:56:52;;;;;;;22.52;11.32;;;;;;;24.94;100.00;-19810.56;5078794;28;20024;-72
2021/07/25 07:59:19;;;;;;;25.42;12.77;;;;;;;24.96;100.00;-19811.09;5079470;28;20050;-70
2021/07/25 08:01:45;;;;;;;27.73;12.13;;;;;;;24.86;100.00;-19808.50;5079264;28;20135;-69
2021/07/25 08:04:10;;;;;;;23.90;11.60;;;;;;;24.51;100.00;-19799.84;5081034;28;20357;-69
2021/07/25 08:06:35;;;;;;;22.10;11.60;;;;;;;24.04;100.00;-19787.81;5071269;28;20036;-69
2021/07/25 08:09:01;;;;;;;21.85;10.90;;;;;;;24.86;100.00;-19808.63;5086416;28;20055;-69
2021/07/25 08:11:27;;;;;;;22.30;11.20;;;;;;;24.13;100.00;-19790.03;5079588;28;20097;-69
2021/07/25 08:13:52;;;;;;;22.20;10.80;;;;;;;23.24;100.00;-19767.38;5087933;28;20024;-69
2021/07/25 08:16:18;;;;;;;26.17;11.75;;;;;;;22.95;100.00;-19760.00;5077964;28;20040;-69
2021/07/25 08:18:43;;;;;;;21.73;10.65;;;;;;;23.74;100.00;-19780.06;5085521;28;20370;-69
2021/07/25 08:21:09;;;;;;;22.45;11.68;;;;;;;23.26;100.00;-19768.03;5079026;28;20024;-69
2021/07/25 08:23:35;;;;;;;22.13;11.73;;;;;;;24.28;100.00;-19793.91;5078750;28;20077;-69
2021/07/25 08:26:01;;;;;;;23.63;11.65;;;;;;;26.77;100.00;-19857.00;5074467;28;20032;-69
2021/07/25 08:28:27;;;;;;;19.48;10.63;;;;;;;28.33;93.56;-19896.41;5073857;28;20546;-70
2021/07/25 08:30:52;;;;;;;20.98;10.70;;;;;;;26.66;95.65;-19854.31;5072942;28;20280;-70
2021/07/25 08:33:18;;;;;;;22.65;10.98;;;;;;;28.36;89.25;-19897.28;5075066;28;20034;-70
2021/07/25 08:35:44;;;;;;;23.80;10.57;;;;;;;29.16;82.26;-19917.47;5077583;28;20046;-70
2021/07/25 08:38:09;;;;;;;21.27;10.70;;;;;;;28.73;78.10;-19906.69;5076322;28;20079;-70
2021/07/25 08:40:35;;;;;;;20.67;9.77;;;;;;;29.95;73.11;-19937.34;5069132;28;20023;-70
2021/07/25 08:43:12;;;;;;;17.27;9.48;;;;;;;28.21;87.38;-19893.44;5075253;28;20024;-70
2021/07/25 08:45:40;;;;;;;17.52;9.02;;;;;;;26.91;90.40;-19860.50;5074071;28;20023;-70
2021/07/25 08:48:14;;;;;;;17.70;9.38;;;;;;;24.63;100.00;-19802.69;5084633;28;20031;-70
2021/07/25 08:51:01;;;;;;;20.00;9.65;;;;;;;25.36;100.00;-19821.28;5079895;28;20089;-69
2021/07/25 08:53:27;;;;;;;16.52;9.20;;;;;;;25.97;100.00;-19836.78;5084265;28;20215;-69
2021/07/25 08:55:54;;;;;;;19.83;9.23;;;;;;;27.81;92.74;-19883.41;5073389;28;20024;-70
2021/07/25 08:58:22;;;;;;;18.05;9.98;;;;;;;27.69;85.39;-19880.31;5084955;28;20552;-70
2021/07/25 09:00:52;;;;;;;21.15;10.32;;;;;;;26.46;90.45;-19849.16;5074953;28;20606;-70
2021/07/25 09:03:19;;;;;;;17.52;9.23;;;;;;;26.41;97.50;-19848.00;5077115;28;20173;-70
2021/07/25 09:05:46;;;;;;;19.95;9.93;;;;;;;25.15;100.00;-19815.88;5079765;28;20292;-70
2021/07/25 09:08:12;;;;;;;17.33;9.82;;;;;;;25.24;100.00;-19818.19;5082728;28;20468;-70
2021/07/25 09:10:38;;;;;;;15.88;8.98;;;;;;;26.13;93.24;-19840.91;5070138;28;20055;-70
2021/07/25 09:13:04;;;;;;;15.30;8.32;;;;;;;25.97;93.80;-19836.78;5071914;28;20040;-69
2021/07/25 09:15:35;;;;;;;18.42;8.50;;;;;;;25.75;100.00;-19831.09;5068991;28;20611;-69
2021/07/25 09:18:02;;;;;;;15.73;8.57;;;;;;;27.17;100.00;-19867.19;5070140;28;20113;-70
2021/07/25 09:20:40;;;;;;;17.88;8.35;;;;;;;26.29;95.99;-19845.03;5077025;28;20037;-70
2021/07/25 09:23:14;;;;;;;19.98;8.48;;;;;;;25.82;100.00;-19833.03;5083269;28;20306;-70
2021/07/25 09:25:43;;;;;;;14.43;8.27;;;;;;;25.79;100.00;-19832.13;5080030;28;20028;-70
2021/07/25 09:28:21;;;;;;;20.20;8.52;;;;;;;26.26;100.00;-19844.13;5085506;28;20034;-70
2021/07/25 09:30:47;;;;;;;17.80;9.27;;;;;;;25.36;100.00;-19821.28;5069863;28;20636;-70
2021/07/25 09:33:30;;;;;;;16.40;8.27;;;;;;;26.11;95.09;-19840.38;5073092;28;20028;-70
2021/07/25 09:36:07;;;;;;;13.68;7.32;;;;;;;27.50;89.98;-19875.44;5079095;28;20092;-70
2021/07/25 09:38:33;;;;;;;17.88;8.35;;;;;;;28.53;78.58;-19901.53;5073127;28;20126;-70
2021/07/25 09:41:00;;;;;;;15.18;8.20;;;;;;;29.70;78.23;-19931.19;5072642;28;20190;-70
2021/07/25 09:43:26;;;;;;;16.20;7.80;;;;;;;29.16;74.95;-19917.59;5066694;28;20032;-70
2021/07/25 09:45:57;;;;;;;14.07;8.10;;;;;;;30.95;66.38;-19962.47;5071844;28;20541;-71
2021/07/25 09:48:34;;;;;;;14.95;6.90;;;;;;;30.18;68.41;-19943.13;5090195;28;20041;-71
2021/07/25 09:51:01;;;;;;;14.73;7.32;;;;;;;28.96;66.91;-19912.47;5071394;28;20035;-71
2021/07/25 09:53:44;;;;;;;12.98;6.88;;;;;;;28.49;70.14;-19900.63;5085226;28;20036;-70
2021/07/25 09:56:18;;;;;;;14.50;7.70;;;;;;;28.15;73.02;-19891.91;5070055;28;20035;-70
2021/07/25 09:58:44;;;;;;;14.82;7.10;;;;;;;30.30;64.06;-19946.19;5090177;28;20521;-70
2021/07/25 10:01:10;;;;;;;13.23;7.53;;;;;;;31.58;59.53;-19978.31;5068808;28;20509;-71
2021/07/25 10:03:36;;;;;;;12.82;6.85;;;;;;;31.75;54.07;-19982.81;5085592;28;20035;-71
2021/07/25 10:06:21;;;;;;;13.02;6.05;;;;;;;29.82;63.02;-19934.00;5060356;28;20055;-71
2021/07/25 10:08:46;;;;;;;13.60;6.80;;;;;;;26.29;76.99;-19845.03;5066387;28;20032;-70
2021/07/25 10:11:19;;;;;;;14.52;7.00;;;;;;;25.49;90.16;-19824.66;5065277;28;20025;-70
2021/07/25 10:13:47;;;;;;;12.70;6.50;;;;;;;27.21;89.32;-19868.22;5092572;28;20103;-70
2021/07/25 10:16:17;;;;;;;15.75;6.50;;;;;;;28.37;74.72;-19897.44;5084697;28;20052;-70
2021/07/25 10:18:46;;;;;;;10.18;5.85;;;;;;;29.01;65.87;-19913.59;5064886;28;20384;-70
2021/07/25 10:21:13;;;;;;;11.55;5.97;;;;;;;27.66;75.33;-19879.69;5064232;28;20060;-70
2021/07/25 10:23:46;;;;;;;12.77;6.88;;;;;;;26.65;85.24;-19853.91;5077727;28;20039;-70
2021/07/25 10:26:12;;;;;;;12.50;6.35;;;;;;;25.83;87.55;-19833.16;5078713;28;20059;-70
2021/07/25 10:28:40;;;;;;;13.25;6.20;;;;;;;25.20;88.96;-19817.16;5084571;28;20513;-70
2021/07/25 10:31:08;;;;;;;11.65;5.70;;;;;;;25.98;86.34;-19837.16;5078671;28;20062;-70
2021/07/25 10:33:35;;;;;;;10.70;5.63;;;;;;;26.39;83.12;-19847.47;5082739;28;20056;-70
2021/07/25 10:36:02;;;;;;;15.23;5.63;;;;;;;28.50;75.10;-19900.91;5074345;28;20056;-71
2021/07/25 10:38:28;;;;;;;9.65;5.57;;;;;;;28.74;63.89;-19906.94;5082063;28;20038;-70
2021/07/25 10:40:54;;;;;;;9.10;5.10;;;;;;;27.52;70.78;-19875.94;5078658;28;20028;-70
2021/07/25 10:43:25;;;;;;;8.80;5.00;;;;;;;26.13;79.02;-19840.78;5086918;28;20624;-70
2021/07/25 10:46:17;;;;;;;8.32;4.97;;;;;;;27.41;72.18;-19873.38;5063011;28;20271;-70
2021/07/25 10:49:27;;;;;;;7.40;4.00;;;;;;;29.28;62.22;-19920.41;5082095;28;20048;-70
2021/07/25 10:51:57;;;;;;;7.60;4.10;;;;;;;27.58;70.29;-19877.50;4995139;28;20044;-70
2021/07/25 10:54:32;;;;;;;7.47;3.60;;;;;;;28.03;69.75;-19889.06;5002262;28;20037;-71
2021/07/25 10:57:10;;;;;;;5.75;3.05;;;;;;;30.13;56.22;-19941.97;4996089;28;20498;-71
2021/07/25 10:59:47;;;;;;;7.18;3.17;;;;;;;28.99;60.69;-19913.22;5001755;28;20117;-71
2021/07/25 11:02:51;;;;;;;6.55;3.17;;;;;;;27.68;67.79;-19880.06;4997544;28;20120;-70
2021/07/25 11:05:18;;;;;;;4.70;2.33;;;;;;;28.37;61.16;-19897.44;4979173;28;20581;-70
2021/07/25 11:07:56;;;;;;;7.82;2.45;;;;;;;30.11;54.24;-19941.44;4995242;28;20502;-71
2021/07/25 11:10:30;;;;;;;5.30;2.67;;;;;;;30.12;52.97;-19941.72;4993741;28;20141;-71
2021/07/25 11:13:16;;;;;;;5.85;2.45;;;;;;;30.66;52.11;-19955.16;4998507;28;20040;-72
2021/07/25 11:15:45;;;;;;;6.22;2.78;;;;;;;29.36;53.99;-19922.47;4983862;28;20096;-72
2021/07/25 11:18:15;;;;;;;6.22;2.50;;;;;;;29.07;57.55;-19915.28;5002784;28;20095;-71